createdAt,value
2023-04-01T00:02:01.084Z,0.23
2023-04-01T00:04:35.941Z,0.17
2023-04-01T00:07:06.256Z,0.17
2023-04-01T00:09:49.118Z,0.10
2023-04-01T00:12:34.105Z,0.10
2023-04-01T00:15:11.048Z,0.10
2023-04-01T00:17:48.152Z,0.33
2023-04-01T00:20:29.708Z,0.20
2023-04-01T00:25:54.497Z,0.30
2023-04-01T00:28:28.638Z,0.20
2023-04-01T00:31:00.421Z,0.40
2023-04-01T00:33:38.074Z,0.30
2023-04-01T00:36:24.805Z,0.20
2023-04-01T00:38:58.659Z,0.00
2023-04-01T00:41:30.069Z,0.13
2023-04-01T00:44:24.671Z,0.40
2023-04-01T00:46:59.662Z,0.83
2023-04-01T00:49:41.510Z,0.10
2023-04-01T00:52:21.066Z,0.27
2023-04-01T00:54:59.317Z,0.43
2023-04-01T00:58:08.683Z,0.60
2023-04-01T01:00:47.787Z,0.30
2023-04-01T01:03:21.637Z,0.40
2023-04-01T01:06:29.894Z,0.28
2023-04-01T01:09:22.401Z,0.30
2023-04-01T01:12:17.774Z,0.30
2023-04-01T01:15:11.504Z,0.20
2023-04-01T01:18:12.627Z,0.30
2023-04-01T01:21:21.872Z,0.10
2023-04-01T01:24:34.825Z,0.10
2023-04-01T01:27:18.740Z,0.10
2023-04-01T01:30:19.379Z,0.10
2023-04-01T01:33:28.269Z,0.20
2023-04-01T01:36:13.689Z,0.27
2023-04-01T01:38:56.121Z,0.30
2023-04-01T01:41:29.165Z,0.17
2023-04-01T01:44:17.084Z,0.37
2023-04-01T01:46:55.155Z,0.10
2023-04-01T01:49:33.456Z,0.10
2023-04-01T01:52:07.490Z,0.33
2023-04-01T01:54:46.523Z,0.20
2023-04-01T01:57:24.498Z,0.20
2023-04-01T02:00:08.327Z,0.30
2023-04-01T02:02:59.310Z,0.30
2023-04-01T02:05:35.284Z,0.45
2023-04-01T02:08:41.946Z,0.47
2023-04-01T02:11:27.034Z,0.50
2023-04-01T02:14:29.419Z,0.50
2023-04-01T02:17:14.377Z,0.38
2023-04-01T02:20:23.018Z,0.50
2023-04-01T02:23:01.830Z,0.53
2023-04-01T02:25:53.455Z,0.60
2023-04-01T02:28:24.426Z,0.50
2023-04-01T02:30:59.249Z,0.67
2023-04-01T02:36:02.077Z,0.63
2023-04-01T02:38:33.368Z,0.40
2023-04-01T02:41:08.550Z,0.52
2023-04-01T02:43:51.330Z,0.53
2023-04-01T02:46:23.738Z,0.80
2023-04-01T02:48:54.793Z,0.70
2023-04-01T02:51:26.150Z,0.87
2023-04-01T02:53:57.706Z,0.80
2023-04-01T02:56:28.911Z,0.82
2023-04-01T02:59:00.080Z,0.60
2023-04-01T03:01:30.664Z,0.80
2023-04-01T03:04:01.213Z,0.57
2023-04-01T03:06:31.840Z,0.70
2023-04-01T03:09:08.497Z,0.53
2023-04-01T03:11:44.369Z,0.63
2023-04-01T03:14:18.566Z,0.80
2023-04-01T03:16:49.553Z,0.60
2023-04-01T03:19:20.250Z,1.85
2023-04-01T03:21:52.342Z,1.20
2023-04-01T03:24:29.780Z,1.30
2023-04-01T03:27:00.530Z,0.83
2023-04-01T03:32:29.125Z,0.97
2023-04-01T03:35:02.622Z,1.00
2023-04-01T03:37:40.893Z,1.20
2023-04-01T03:40:16.308Z,0.93
2023-04-01T03:43:00.138Z,0.90
2023-04-01T03:45:28.374Z,0.95
2023-04-01T03:48:05.069Z,1.10
2023-04-01T03:50:35.696Z,0.80
2023-04-01T03:53:04.661Z,0.60
2023-04-01T03:55:41.585Z,0.80
2023-04-01T03:58:14.562Z,0.87
2023-04-01T04:00:45.579Z,0.97
2023-04-01T04:03:17.016Z,0.70
2023-04-01T04:05:50.538Z,0.60
2023-04-01T04:08:23.270Z,1.00
2023-04-01T04:11:00.617Z,0.60
2023-04-01T04:13:32.998Z,0.50
2023-04-01T04:16:22.309Z,0.60
2023-04-01T04:19:03.846Z,0.80
2023-04-01T04:21:35.008Z,0.90
2023-04-01T04:24:14.336Z,0.80
2023-04-01T04:27:03.681Z,0.83
2023-04-01T04:32:09.577Z,1.20
2023-04-01T04:37:27.262Z,1.57
2023-04-01T04:40:00.028Z,2.37
2023-04-01T04:42:30.185Z,6.03
2023-04-01T04:45:13.689Z,1.37
2023-04-01T04:47:55.812Z,2.13
2023-04-01T04:50:47.536Z,1.87
2023-04-01T04:53:22.330Z,1.50
2023-04-01T04:55:55.615Z,1.20
2023-04-01T04:58:39.529Z,1.30
2023-04-01T05:01:21.039Z,1.73
2023-04-01T05:03:56.164Z,1.67
2023-04-01T05:06:27.027Z,1.47
2023-04-01T05:09:00.544Z,1.52
2023-04-01T05:11:33.771Z,1.67
2023-04-01T05:14:07.637Z,1.93
2023-04-01T05:16:38.456Z,2.23
2023-04-01T05:19:09.413Z,2.10
2023-04-01T05:21:39.819Z,2.22
2023-04-01T05:24:21.175Z,2.20
2023-04-01T05:27:04.525Z,2.37
2023-04-01T05:29:44.642Z,2.00
2023-04-01T05:32:38.531Z,2.10
2023-04-01T05:35:12.746Z,2.30
2023-04-01T05:37:41.201Z,2.10
2023-04-01T05:40:27.886Z,2.20
2023-04-01T05:42:56.632Z,2.57
2023-04-01T05:45:26.335Z,2.20
2023-04-01T05:48:32.654Z,2.43
2023-04-01T05:51:04.397Z,2.13
2023-04-01T05:56:29.183Z,2.10
2023-04-01T05:58:57.574Z,2.40
2023-04-01T06:01:32.181Z,2.20
2023-04-01T06:04:04.849Z,2.00
2023-04-01T06:06:43.186Z,2.30
2023-04-01T06:09:49.132Z,2.33
2023-04-01T06:13:04.139Z,2.07
2023-04-01T06:16:05.456Z,2.20
2023-04-01T06:18:55.634Z,2.20
2023-04-01T06:22:05.403Z,1.90
2023-04-01T06:25:13.037Z,2.27
2023-04-01T06:28:13.820Z,2.17
2023-04-01T06:31:32.910Z,2.23
2023-04-01T06:34:43.438Z,1.70
2023-04-01T06:37:34.633Z,1.43
2023-04-01T06:40:27.750Z,1.65
2023-04-01T06:43:07.566Z,1.30
2023-04-01T06:46:24.067Z,1.50
2023-04-01T06:49:25.656Z,1.50
2023-04-01T06:52:41.217Z,1.60
2023-04-01T06:59:39.552Z,2.00
2023-04-01T07:03:00.641Z,2.20
2023-04-01T07:05:34.152Z,2.53
2023-04-01T07:08:13.504Z,2.03
2023-04-01T07:11:12.774Z,1.97
2023-04-01T07:14:26.021Z,1.70
2023-04-01T07:17:07.720Z,1.40
2023-04-01T07:20:24.856Z,1.53
2023-04-01T07:23:00.799Z,1.07
2023-04-01T07:25:46.241Z,1.30
2023-04-01T07:28:50.659Z,1.63
2023-04-01T07:31:52.798Z,1.20
2023-04-01T07:34:45.033Z,1.47
2023-04-01T07:38:05.376Z,1.57
2023-04-01T07:41:27.121Z,1.63
2023-04-01T07:44:47.565Z,1.47
2023-04-01T07:51:41.503Z,1.77
2023-04-01T07:54:29.865Z,2.00
2023-04-01T07:57:35.044Z,2.23
2023-04-01T08:00:22.507Z,2.07
2023-04-01T08:03:36.581Z,2.23
2023-04-01T08:06:23.236Z,1.73
2023-04-01T08:09:32.133Z,2.00
2023-04-01T08:12:50.223Z,1.43
2023-04-01T08:15:58.662Z,1.60
2023-04-01T08:19:35.934Z,1.90
2023-04-01T08:22:21.985Z,2.10
2023-04-01T08:25:11.742Z,2.13
2023-04-01T08:27:57.233Z,1.77
2023-04-01T08:30:57.165Z,1.70
2023-04-01T08:33:46.496Z,1.80
2023-04-01T08:36:39.409Z,1.70
2023-04-01T08:39:29.678Z,1.65
2023-04-01T08:42:50.601Z,1.70
2023-04-01T08:45:41.520Z,1.47
2023-04-01T08:48:49.707Z,1.57
2023-04-01T08:52:10.263Z,1.25
2023-04-01T08:54:56.075Z,1.30
2023-04-01T09:01:39.553Z,1.50
2023-04-01T09:04:29.186Z,1.27
2023-04-01T09:07:15.528Z,1.40
2023-04-01T09:10:34.457Z,1.43
2023-04-01T09:13:49.811Z,1.20
2023-04-01T09:16:47.752Z,1.10
2023-04-01T09:19:59.212Z,0.73
2023-04-01T09:23:05.367Z,1.23
2023-04-01T09:26:12.245Z,1.10
2023-04-01T09:29:15.730Z,1.53
2023-04-01T09:32:18.178Z,1.20
2023-04-01T09:35:29.684Z,1.57
2023-04-01T09:38:40.871Z,1.40
2023-04-01T09:45:00.525Z,0.97
2023-04-01T09:48:07.090Z,0.73
2023-04-01T09:50:51.878Z,1.40
2023-04-01T09:53:50.467Z,1.20
2023-04-01T09:57:02.192Z,1.83
2023-04-01T10:00:33.149Z,1.30
2023-04-01T10:03:40.301Z,2.00
2023-04-01T10:06:37.692Z,1.30
2023-04-01T10:09:56.970Z,1.63
2023-04-01T10:12:47.470Z,1.30
2023-04-01T10:15:59.632Z,1.07
2023-04-01T10:18:51.550Z,0.93
2023-04-01T10:21:53.172Z,1.13
2023-04-01T10:24:54.436Z,0.97
2023-04-01T10:31:04.454Z,1.07
2023-04-01T10:34:09.181Z,1.40
2023-04-01T10:37:02.384Z,1.77
2023-04-01T10:40:16.334Z,1.83
2023-04-01T10:43:51.341Z,2.50
2023-04-01T10:47:01.939Z,2.73
2023-04-01T10:50:12.221Z,2.73
2023-04-01T10:53:16.083Z,2.37
2023-04-01T10:56:49.589Z,2.13
2023-04-01T10:59:58.731Z,1.50
2023-04-01T11:03:24.765Z,1.87
2023-04-01T11:06:47.181Z,1.40
2023-04-01T11:09:47.066Z,1.40
2023-04-01T11:12:41.695Z,1.40
2023-04-01T11:15:45.669Z,1.83
2023-04-01T11:18:46.403Z,1.80
2023-04-01T11:21:38.900Z,1.40
2023-04-01T11:24:39.174Z,1.07
2023-04-01T11:27:55.247Z,1.07
2023-04-01T11:31:11.736Z,1.13
2023-04-01T11:33:52.277Z,0.90
2023-04-01T11:37:07.539Z,0.50
2023-04-01T11:40:01.865Z,0.70
2023-04-01T11:43:03.892Z,0.53
2023-04-01T11:46:56.376Z,0.47
2023-04-01T11:49:54.486Z,0.47
2023-04-01T11:53:15.370Z,0.60
2023-04-01T11:56:09.242Z,0.65
2023-04-01T11:59:16.876Z,0.40
2023-04-01T12:02:19.295Z,0.47
2023-04-01T12:05:19.833Z,0.40
2023-04-01T12:08:57.023Z,0.50
2023-04-01T12:12:18.965Z,0.40
2023-04-01T12:15:42.692Z,0.10
2023-04-01T12:18:24.648Z,0.20
2023-04-01T12:21:24.661Z,0.20
2023-04-01T12:24:16.396Z,0.25
2023-04-01T12:27:23.217Z,0.30
2023-04-01T12:30:17.333Z,0.22
2023-04-01T12:33:11.977Z,0.70
2023-04-01T12:36:01.425Z,0.30
2023-04-01T12:39:10.464Z,0.10
2023-04-01T12:45:34.489Z,0.10
2023-04-01T12:48:39.182Z,0.10
2023-04-01T12:51:33.209Z,0.00
2023-04-01T12:54:50.688Z,0.20
2023-04-01T12:58:13.151Z,0.10
2023-04-01T13:01:01.361Z,0.10
2023-04-01T13:04:08.395Z,0.03
2023-04-01T13:07:26.177Z,0.10
2023-04-01T13:10:10.823Z,0.10
2023-04-01T13:13:05.117Z,0.30
2023-04-01T13:16:14.604Z,0.08
2023-04-01T13:19:16.284Z,0.10
2023-04-01T13:24:58.074Z,0.17
2023-04-01T13:27:43.591Z,0.10
2023-04-01T13:30:31.530Z,0.10
2023-04-01T13:33:49.009Z,0.20
2023-04-01T13:36:38.285Z,0.10
2023-04-01T13:42:48.677Z,0.03
2023-04-01T13:45:29.040Z,0.32
2023-04-01T13:48:34.420Z,0.20
2023-04-01T13:54:22.261Z,0.20
2023-04-01T13:57:26.182Z,0.25
2023-04-01T14:00:25.968Z,0.40
2023-04-01T14:03:15.338Z,0.40
2023-04-01T14:06:30.467Z,0.40
2023-04-01T14:09:39.144Z,0.77
2023-04-01T14:12:33.620Z,1.80
2023-04-01T14:15:52.997Z,1.38
2023-04-01T14:18:53.520Z,0.68
2023-04-01T14:22:19.709Z,0.25
2023-04-01T14:25:17.019Z,0.52
2023-04-01T14:28:24.308Z,0.40
2023-04-01T14:31:58.287Z,0.50
2023-04-01T14:34:40.112Z,0.30
2023-04-01T14:37:50.062Z,0.80
2023-04-01T14:40:52.423Z,4.32
2023-04-01T14:43:50.740Z,2.42
2023-04-01T14:46:39.506Z,2.13
2023-04-01T14:49:30.934Z,1.60
2023-04-01T14:52:24.854Z,1.60
2023-04-01T14:55:01.117Z,1.07
2023-04-01T14:57:34.127Z,0.83
2023-04-01T15:00:18.870Z,1.37
2023-04-01T15:03:11.310Z,2.10
2023-04-01T15:06:22.581Z,1.50
2023-04-01T15:09:09.524Z,5.93
2023-04-01T15:12:27.859Z,4.27
2023-04-01T15:15:21.899Z,3.17
2023-04-01T15:18:24.669Z,2.20
2023-04-01T15:21:29.031Z,2.37
2023-04-01T15:24:29.305Z,1.73
2023-04-01T15:27:46.389Z,1.60
2023-04-01T15:30:50.343Z,0.83
2023-04-01T15:33:46.977Z,1.37
2023-04-01T15:37:09.952Z,0.83
2023-04-01T15:39:57.190Z,0.40
2023-04-01T15:43:08.841Z,0.40
2023-04-01T15:45:56.259Z,0.88
2023-04-01T15:49:10.975Z,0.73
2023-04-01T15:52:20.652Z,0.70
2023-04-01T15:55:14.086Z,1.00
2023-04-01T15:58:01.845Z,0.70
2023-04-01T16:01:38.443Z,0.33
2023-04-01T16:04:56.197Z,0.30
2023-04-01T16:07:37.127Z,0.10
2023-04-01T16:10:52.380Z,0.30
2023-04-01T16:13:39.934Z,0.30
2023-04-01T16:16:31.729Z,0.70
2023-04-01T16:19:47.028Z,0.43
2023-04-01T16:22:53.036Z,0.13
2023-04-01T16:25:43.081Z,0.53
2023-04-01T16:28:52.886Z,0.93
2023-04-01T16:32:10.678Z,1.10
2023-04-01T16:35:01.304Z,0.80
2023-04-01T16:37:50.288Z,0.67
2023-04-01T16:40:32.839Z,0.80
2023-04-01T16:43:46.713Z,0.20
2023-04-01T16:46:39.615Z,0.77
2023-04-01T16:50:03.665Z,1.47
2023-04-01T16:52:51.127Z,0.40
2023-04-01T16:55:48.519Z,0.30
2023-04-01T16:58:28.627Z,0.57
2023-04-01T17:01:28.332Z,0.60
2023-04-01T17:04:12.795Z,0.50
2023-04-01T17:07:08.674Z,0.60
2023-04-01T17:10:23.547Z,0.20
2023-04-01T17:13:16.048Z,0.30
2023-04-01T17:19:06.660Z,1.57
2023-04-01T17:22:16.077Z,0.33
2023-04-01T17:25:22.817Z,0.50
2023-04-01T17:28:22.981Z,0.70
2023-04-01T17:34:33.101Z,0.50
2023-04-01T17:37:29.469Z,0.67
2023-04-01T17:40:22.054Z,0.50
2023-04-01T17:43:12.121Z,0.30
2023-04-01T17:46:04.185Z,0.60
2023-04-01T17:48:58.809Z,1.87
2023-04-01T17:51:43.406Z,1.00
2023-04-01T17:54:19.671Z,0.70
2023-04-01T17:57:27.686Z,0.80
2023-04-01T18:00:54.688Z,0.77
2023-04-01T18:04:05.310Z,1.13
2023-04-01T18:07:16.422Z,0.73
2023-04-01T18:10:15.689Z,0.50
2023-04-01T18:13:48.605Z,0.60
2023-04-01T18:16:31.299Z,0.50
2023-04-01T18:19:30.143Z,0.50
2023-04-01T18:22:16.880Z,0.47
2023-04-01T18:25:09.639Z,0.50
2023-04-01T18:28:28.906Z,0.50
2023-04-01T18:31:34.413Z,0.37
2023-04-01T18:34:54.464Z,0.40
2023-04-01T18:37:45.199Z,0.63
2023-04-01T18:40:49.096Z,0.93
2023-04-01T18:43:44.531Z,0.60
2023-04-01T18:46:46.848Z,0.83
2023-04-01T18:52:53.495Z,1.10
2023-04-01T18:55:51.836Z,1.43
2023-04-01T18:58:36.951Z,1.87
2023-04-01T19:01:26.140Z,0.93
2023-04-01T19:04:30.053Z,1.30
2023-04-01T19:07:30.667Z,1.40
2023-04-01T19:10:08.504Z,1.40
2023-04-01T19:12:52.422Z,0.90
2023-04-01T19:16:10.382Z,0.60
2023-04-01T19:19:21.613Z,1.23
2023-04-01T19:22:16.631Z,3.77
2023-04-01T19:25:29.706Z,1.83
2023-04-01T19:28:25.437Z,1.37
2023-04-01T19:31:35.984Z,1.00
2023-04-01T19:34:52.727Z,1.20
2023-04-01T19:37:47.051Z,0.80
2023-04-01T19:41:15.378Z,0.70
2023-04-01T19:44:06.694Z,0.50
2023-04-01T19:47:10.304Z,0.30
2023-04-01T19:50:47.115Z,0.63
2023-04-01T19:53:47.749Z,0.40
2023-04-01T19:56:30.145Z,0.87
2023-04-01T19:59:35.956Z,2.00
2023-04-01T20:02:53.199Z,2.20
2023-04-01T20:05:55.006Z,2.20
2023-04-01T20:08:38.976Z,2.25
2023-04-01T20:11:24.543Z,2.50
2023-04-01T20:14:25.695Z,1.73
2023-04-01T20:17:13.654Z,1.67
2023-04-01T20:19:58.570Z,1.00
2023-04-01T20:23:03.434Z,1.63
2023-04-01T20:26:11.398Z,1.60
2023-04-01T20:29:10.893Z,2.80
2023-04-01T20:32:07.877Z,3.13
2023-04-01T20:34:54.467Z,3.57
2023-04-01T20:38:07.382Z,3.93
2023-04-01T20:40:44.605Z,2.83
2023-04-01T20:43:36.502Z,2.37
2023-04-01T20:47:01.905Z,1.48
2023-04-01T20:50:36.586Z,4.47
2023-04-01T20:53:51.073Z,7.30
2023-04-01T20:56:21.622Z,5.77
2023-04-01T20:59:30.156Z,5.17
2023-04-01T21:02:40.632Z,3.10
2023-04-01T21:05:35.461Z,1.30
2023-04-01T21:08:20.200Z,1.00
2023-04-01T21:11:27.885Z,1.13
2023-04-01T21:14:35.169Z,1.37
2023-04-01T21:17:45.259Z,1.57
2023-04-01T21:20:47.821Z,2.60
2023-04-01T21:23:43.453Z,2.22
2023-04-01T21:26:53.653Z,2.30
2023-04-01T21:29:26.847Z,3.40
2023-04-01T21:32:17.557Z,1.83
2023-04-01T21:35:11.524Z,2.40
2023-04-01T21:38:10.680Z,2.53
2023-04-01T21:41:10.922Z,3.53
2023-04-01T21:44:22.820Z,2.93
2023-04-01T21:47:35.725Z,2.42
2023-04-01T21:50:30.025Z,1.90
2023-04-01T21:53:51.491Z,3.47
2023-04-01T22:00:19.160Z,2.40
2023-04-01T22:03:48.713Z,2.20
2023-04-01T22:06:35.369Z,1.60
2023-04-01T22:09:41.368Z,1.13
2023-04-01T22:12:23.484Z,1.47
2023-04-01T22:15:26.089Z,1.83
2023-04-01T22:18:06.701Z,0.87
2023-04-01T22:21:08.638Z,0.60
2023-04-01T22:24:05.298Z,1.60
2023-04-01T22:27:23.936Z,1.30
2023-04-01T22:30:25.166Z,1.47
2023-04-01T22:33:24.466Z,1.50
2023-04-01T22:36:31.519Z,1.60
2023-04-01T22:39:12.662Z,2.17
2023-04-01T22:42:29.495Z,1.40
2023-04-01T22:45:19.860Z,1.43
2023-04-01T22:47:58.350Z,1.20
2023-04-01T22:51:23.946Z,1.03
2023-04-01T22:54:17.184Z,0.97
2023-04-01T22:57:02.464Z,1.40
2023-04-01T22:59:57.140Z,1.40
2023-04-01T23:02:56.374Z,1.33
2023-04-01T23:05:29.123Z,0.97
2023-04-01T23:08:46.797Z,1.27
2023-04-01T23:11:26.198Z,1.23
2023-04-01T23:14:22.982Z,1.07
2023-04-01T23:17:14.210Z,0.87
2023-04-01T23:20:07.628Z,1.35
2023-04-01T23:23:30.416Z,1.17
2023-04-01T23:26:07.828Z,0.93
2023-04-01T23:29:06.715Z,0.97
2023-04-01T23:32:15.490Z,0.90
2023-04-01T23:34:56.295Z,1.17
2023-04-01T23:37:33.740Z,0.93
2023-04-01T23:40:11.059Z,0.70
2023-04-01T23:42:47.156Z,0.40
2023-04-01T23:45:24.762Z,0.83
2023-04-01T23:48:01.956Z,1.10
2023-04-01T23:50:32.896Z,0.90
2023-04-01T23:53:11.151Z,0.93
2023-04-01T23:55:43.807Z,1.30
2023-04-01T23:58:47.815Z,1.10
